sensor_id;sensor_type;location;lat;lon;timestamp;pressure;altitude;pressure_sealevel;temperature;humidity
20145;BME280;10233;50.814;6.590;2024-03-08T00:00:35;100298.91;;;4.55;100.00
20145;BME280;10233;50.814;6.590;2024-03-08T00:01:36;100305.16;;;4.54;100.00
20145;BME280;10233;50.814;6.590;2024-03-08T00:02:37;100288.84;;;4.51;100.00
20145;BME280;10233;50.814;6.590;2024-03-08T00:03:37;100298.41;;;4.52;100.00
20145;BME280;10233;50.814;6.590;2024-03-08T00:04:38;100292.16;;;4.53;100.00
20145;BME280;10233;50.814;6.590;2024-03-08T00:05:38;100300.84;;;4.53;100.00
20145;BME280;10233;50.814;6.590;2024-03-08T00:06:39;100295.94;;;4.50;100.00
20145;BME280;10233;50.814;6.590;2024-03-08T00:07:41;100291.63;;;4.41;100.00
20145;BME280;10233;50.814;6.590;2024-03-08T00:08:41;100288.03;;;4.42;100.00
20145;BME280;10233;50.814;6.590;2024-03-08T00:09:42;100297.41;;;4.45;100.00
20145;BME280;10233;50.814;6.590;2024-03-08T00:10:42;100292.97;;;4.45;100.00
20145;BME280;10233;50.814;6.590;2024-03-08T00:11:43;100289.50;;;4.45;100.00
20145;BME280;10233;50.814;6.590;2024-03-08T00:12:44;100287.22;;;4.42;100.00
20145;BME280;10233;50.814;6.590;2024-03-08T00:13:45;100281.44;;;4.46;100.00
20145;BME280;10233;50.814;6.590;2024-03-08T00:14:47;100289.66;;;4.43;100.00
20145;BME280;10233;50.814;6.590;2024-03-08T00:15:47;100288.84;;;4.43;100.00
20145;BME280;10233;50.814;6.590;2024-03-08T00:16:47;100283.91;;;4.40;100.00
20145;BME280;10233;50.814;6.590;2024-03-08T00:17:48;100277.16;;;4.37;100.00
20145;BME280;10233;50.814;6.590;2024-03-08T00:18:49;100280.13;;;4.34;100.00
20145;BME280;10233;50.814;6.590;2024-03-08T00:19:49;100287.19;;;4.34;100.00
20145;BME280;10233;50.814;6.590;2024-03-08T00:20:50;100292.44;;;4.34;100.00
20145;BME280;10233;50.814;6.590;2024-03-08T00:21:51;100290.66;;;4.34;100.00
20145;BME280;10233;50.814;6.590;2024-03-08T00:22:51;100282.56;;;4.36;100.00
20145;BME280;10233;50.814;6.590;2024-03-08T00:23:52;100282.22;;;4.31;100.00
20145;BME280;10233;50.814;6.590;2024-03-08T00:24:55;100288.00;;;4.26;100.00
20145;BME280;10233;50.814;6.590;2024-03-08T00:25:55;100278.81;;;4.30;100.00
20145;BME280;10233;50.814;6.590;2024-03-08T00:26:56;100287.34;;;4.32;100.00
20145;BME280;10233;50.814;6.590;2024-03-08T00:27:56;100281.25;;;4.32;100.00
20145;BME280;10233;50.814;6.590;2024-03-08T00:28:57;100280.09;;;4.26;100.00
20145;BME280;10233;50.814;6.590;2024-03-08T00:29:57;100278.47;;;4.25;100.00
20145;BME280;10233;50.814;6.590;2024-03-08T00:30:58;100280.41;;;4.23;100.00
20145;BME280;10233;50.814;6.590;2024-03-08T00:31:58;100274.16;;;4.16;100.00
20145;BME280;10233;50.814;6.590;2024-03-08T00:32:59;100271.84;;;4.13;100.00
20145;BME280;10233;50.814;6.590;2024-03-08T00:33:59;100278.56;;;4.16;100.00
20145;BME280;10233;50.814;6.590;2024-03-08T00:35:00;100270.69;;;4.16;100.00
20145;BME280;10233;50.814;6.590;2024-03-08T00:36:00;100267.06;;;4.17;100.00
20145;BME280;10233;50.814;6.590;2024-03-08T00:37:01;100265.78;;;4.21;100.00
20145;BME280;10233;50.814;6.590;2024-03-08T00:38:01;100269.22;;;4.13;100.00
20145;BME280;10233;50.814;6.590;2024-03-08T00:39:02;100269.06;;;4.15;100.00
20145;BME280;10233;50.814;6.590;2024-03-08T00:40:06;100267.72;;;4.11;100.00
20145;BME280;10233;50.814;6.590;2024-03-08T00:41:09;100267.22;;;4.07;100.00
20145;BME280;10233;50.814;6.590;2024-03-08T00:42:09;100272.78;;;4.04;100.00
20145;BME280;10233;50.814;6.590;2024-03-08T00:43:10;100265.09;;;4.03;100.00
20145;BME280;10233;50.814;6.590;2024-03-08T00:44:13;100258.16;;;4.02;100.00
20145;BME280;10233;50.814;6.590;2024-03-08T00:45:14;100266.88;;;4.02;100.00
20145;BME280;10233;50.814;6.590;2024-03-08T00:46:14;100267.53;;;4.04;100.00
20145;BME280;10233;50.814;6.590;2024-03-08T00:47:15;100267.03;;;4.01;100.00
20145;BME280;10233;50.814;6.590;2024-03-08T00:48:15;100264.56;;;3.99;100.00
20145;BME280;10233;50.814;6.590;2024-03-08T00:49:16;100268.16;;;3.98;100.00
20145;BME280;10233;50.814;6.590;2024-03-08T00:50:17;100264.56;;;3.99;100.00
20145;BME280;10233;50.814;6.590;2024-03-08T00:51:18;100264.91;;;4.04;100.00
20145;BME280;10233;50.814;6.590;2024-03-08T00:52:18;100262.91;;;3.98;100.00
20145;BME280;10233;50.814;6.590;2024-03-08T00:53:19;100265.38;;;4.00;100.00
20145;BME280;10233;50.814;6.590;2024-03-08T00:54:19;100271.63;;;3.99;100.00
20145;BME280;10233;50.814;6.590;2024-03-08T00:55:20;100264.41;;;4.01;100.00
20145;BME280;10233;50.814;6.590;2024-03-08T00:56:20;100267.53;;;3.96;100.00
20145;BME280;10233;50.814;6.590;2024-03-08T00:57:21;100268.81;;;3.92;100.00
20145;BME280;10233;50.814;6.590;2024-03-08T00:58:22;100257.16;;;3.95;100.00
20145;BME280;10233;50.814;6.590;2024-03-08T00:59:24;100258.81;;;3.96;100.00
20145;BME280;10233;50.814;6.590;2024-03-08T01:00:24;100262.88;;;3.90;100.00
20145;BME280;10233;50.814;6.590;2024-03-08T01:01:25;100251.06;;;3.86;100.00
20145;BME280;10233;50.814;6.590;2024-03-08T01:02:26;100254.38;;;3.96;100.00
20145;BME280;10233;50.814;6.590;2024-03-08T01:03:27;100256.31;;;3.94;100.00
20145;BME280;10233;50.814;6.590;2024-03-08T01:04:27;100253.34;;;3.89;100.00
20145;BME280;10233;50.814;6.590;2024-03-08T01:05:29;100256.31;;;3.86;100.00
20145;BME280;10233;50.814;6.590;2024-03-08T01:06:29;100255.97;;;3.81;100.00
20145;BME280;10233;50.814;6.590;2024-03-08T01:07:30;100246.75;;;3.85;100.00
20145;BME280;10233;50.814;6.590;2024-03-08T01:08:31;100253.00;;;3.84;100.00
20145;BME280;10233;50.814;6.590;2024-03-08T01:09:31;100247.41;;;3.79;100.00
20145;BME280;10233;50.814;6.590;2024-03-08T01:10:31;100248.25;;;3.80;100.00
20145;BME280;10233;50.814;6.590;2024-03-08T01:11:33;100248.38;;;3.78;100.00
20145;BME280;10233;50.814;6.590;2024-03-08T01:12:34;100241.00;;;3.82;100.00
20145;BME280;10233;50.814;6.590;2024-03-08T01:13:35;100246.25;;;3.82;100.00
20145;BME280;10233;50.814;6.590;2024-03-08T01:14:36;100241.50;;;3.85;100.00
20145;BME280;10233;50.814;6.590;2024-03-08T01:15:36;100242.28;;;3.78;100.00
20145;BME280;10233;50.814;6.590;2024-03-08T01:16:37;100237.88;;;3.78;100.00
20145;BME280;10233;50.814;6.590;2024-03-08T01:17:37;100238.03;;;3.77;100.00
20145;BME280;10233;50.814;6.590;2024-03-08T01:18:38;100240.00;;;3.75;100.00
20145;BME280;10233;50.814;6.590;2024-03-08T01:19:38;100240.50;;;3.78;100.00
20145;BME280;10233;50.814;6.590;2024-03-08T01:20:39;100236.53;;;3.66;100.00
20145;BME280;10233;50.814;6.590;2024-03-08T01:21:42;100238.16;;;3.67;100.00
20145;BME280;10233;50.814;6.590;2024-03-08T01:22:42;100240.78;;;3.67;100.00
20145;BME280;10233;50.814;6.590;2024-03-08T01:23:42;100241.78;;;3.66;100.00
20145;BME280;10233;50.814;6.590;2024-03-08T01:24:43;100238.97;;;3.68;100.00
20145;BME280;10233;50.814;6.590;2024-03-08T01:25:43;100242.28;;;3.70;100.00
20145;BME280;10233;50.814;6.590;2024-03-08T01:26:44;100237.19;;;3.68;100.00
20145;BME280;10233;50.814;6.590;2024-03-08T01:27:45;100233.72;;;3.68;100.00
20145;BME280;10233;50.814;6.590;2024-03-08T01:28:45;100239.66;;;3.70;100.00
20145;BME280;10233;50.814;6.590;2024-03-08T01:29:45;100232.22;;;3.65;100.00
20145;BME280;10233;50.814;6.590;2024-03-08T01:30:46;100232.06;;;3.67;100.00
20145;BME280;10233;50.814;6.590;2024-03-08T01:31:46;100232.41;;;3.64;100.00
20145;BME280;10233;50.814;6.590;2024-03-08T01:32:47;100229.75;;;3.56;100.00
20145;BME280;10233;50.814;6.590;2024-03-08T01:33:47;100238.81;;;3.61;100.00
20145;BME280;10233;50.814;6.590;2024-03-08T01:34:50;100228.94;;;3.63;100.00
20145;BME280;10233;50.814;6.590;2024-03-08T01:35:54;100221.72;;;3.65;100.00
20145;BME280;10233;50.814;6.590;2024-03-08T01:36:54;100226.81;;;3.59;100.00
20145;BME280;10233;50.814;6.590;2024-03-08T01:37:56;100234.69;;;3.59;100.00
20145;BME280;10233;50.814;6.590;2024-03-08T01:38:57;100223.84;;;3.62;100.00
20145;BME280;10233;50.814;6.590;2024-03-08T01:39:57;100228.91;;;3.55;100.00
20145;BME280;10233;50.814;6.590;2024-03-08T01:40:58;100225.31;;;3.56;100.00
20145;BME280;10233;50.814;6.590;2024-03-08T01:41:58;100217.09;;;3.59;100.00
20145;BME280;10233;50.814;6.590;2024-03-08T01:44:18;100227.13;;;3.56;100.00
20145;BME280;10233;50.814;6.590;2024-03-08T01:45:19;100224.34;;;3.57;100.00
20145;BME280;10233;50.814;6.590;2024-03-08T01:46:20;100217.25;;;3.50;100.00
20145;BME280;10233;50.814;6.590;2024-03-08T01:47:22;100215.41;;;3.50;100.00
20145;BME280;10233;50.814;6.590;2024-03-08T01:48:26;100219.03;;;3.49;100.00
20145;BME280;10233;50.814;6.590;2024-03-08T01:49:29;100216.28;;;3.59;100.00
20145;BME280;10233;50.814;6.590;2024-03-08T01:50:29;100221.97;;;3.46;100.00
20145;BME280;10233;50.814;6.590;2024-03-08T01:51:30;100220.66;;;3.50;100.00
20145;BME280;10233;50.814;6.590;2024-03-08T01:52:31;100212.84;;;3.58;100.00
20145;BME280;10233;50.814;6.590;2024-03-08T01:53:32;100213.97;;;3.56;100.00
20145;BME280;10233;50.814;6.590;2024-03-08T01:54:33;100217.06;;;3.51;100.00
20145;BME280;10233;50.814;6.590;2024-03-08T01:55:35;100209.84;;;3.53;100.00
20145;BME280;10233;50.814;6.590;2024-03-08T01:56:37;100214.63;;;3.50;100.00
20145;BME280;10233;50.814;6.590;2024-03-08T01:57:39;100203.28;;;3.49;100.00
20145;BME280;10233;50.814;6.590;2024-03-08T01:58:41;100202.91;;;3.44;100.00
20145;BME280;10233;50.814;6.590;2024-03-08T01:59:45;100210.66;;;3.46;100.00
20145;BME280;10233;50.814;6.590;2024-03-08T02:00:46;100203.91;;;3.43;100.00
20145;BME280;10233;50.814;6.590;2024-03-08T02:01:49;100211.75;;;3.35;100.00
20145;BME280;10233;50.814;6.590;2024-03-08T02:02:54;100208.81;;;3.38;100.00
20145;BME280;10233;50.814;6.590;2024-03-08T02:03:54;100212.78;;;3.42;100.00
20145;BME280;10233;50.814;6.590;2024-03-08T02:04:55;100205.50;;;3.36;100.00
20145;BME280;10233;50.814;6.590;2024-03-08T02:05:55;100207.66;;;3.41;100.00
20145;BME280;10233;50.814;6.590;2024-03-08T02:06:56;100203.72;;;3.37;100.00
20145;BME280;10233;50.814;6.590;2024-03-08T02:07:58;100202.50;;;3.31;100.00
20145;BME280;10233;50.814;6.590;2024-03-08T02:08:59;100203.06;;;3.35;100.00
20145;BME280;10233;50.814;6.590;2024-03-08T02:09:59;100203.19;;;3.33;100.00
20145;BME280;10233;50.814;6.590;2024-03-08T02:11:01;100198.44;;;3.37;100.00
20145;BME280;10233;50.814;6.590;2024-03-08T02:12:02;100199.44;;;3.36;100.00
20145;BME280;10233;50.814;6.590;2024-03-08T02:13:08;100201.38;;;3.34;100.00
20145;BME280;10233;50.814;6.590;2024-03-08T02:14:08;100204.53;;;3.37;100.00
20145;BME280;10233;50.814;6.590;2024-03-08T02:15:11;100196.19;;;3.42;100.00
20145;BME280;10233;50.814;6.590;2024-03-08T02:16:11;100197.63;;;3.36;100.00
20145;BME280;10233;50.814;6.590;2024-03-08T02:17:12;100199.63;;;3.42;100.00
20145;BME280;10233;50.814;6.590;2024-03-08T02:18:13;100200.56;;;3.33;100.00
20145;BME280;10233;50.814;6.590;2024-03-08T02:19:14;100198.75;;;3.34;100.00
20145;BME280;10233;50.814;6.590;2024-03-08T02:20:15;100193.84;;;3.31;100.00
20145;BME280;10233;50.814;6.590;2024-03-08T02:21:17;100194.00;;;3.29;100.00
20145;BME280;10233;50.814;6.590;2024-03-08T02:22:21;100189.38;;;3.31;100.00
20145;BME280;10233;50.814;6.590;2024-03-08T02:23:22;100182.50;;;3.30;100.00
20145;BME280;10233;50.814;6.590;2024-03-08T02:24:25;100189.72;;;3.28;100.00
20145;BME280;10233;50.814;6.590;2024-03-08T02:25:25;100186.75;;;3.31;100.00
20145;BME280;10233;50.814;6.590;2024-03-08T02:26:26;100179.38;;;3.27;100.00
20145;BME280;10233;50.814;6.590;2024-03-08T02:27:27;100182.78;;;3.19;100.00
20145;BME280;10233;50.814;6.590;2024-03-08T02:28:28;100187.72;;;3.22;100.00
20145;BME280;10233;50.814;6.590;2024-03-08T02:29:30;100174.41;;;3.24;100.00
20145;BME280;10233;50.814;6.590;2024-03-08T02:30:31;100179.53;;;3.25;100.00
20145;BME280;10233;50.814;6.590;2024-03-08T02:31:32;100177.88;;;3.24;100.00
20145;BME280;10233;50.814;6.590;2024-03-08T02:32:33;100172.56;;;3.16;100.00
20145;BME280;10233;50.814;6.590;2024-03-08T02:33:33;100173.63;;;3.23;100.00
20145;BME280;10233;50.814;6.590;2024-03-08T02:34:34;100176.34;;;3.14;100.00
20145;BME280;10233;50.814;6.590;2024-03-08T02:35:35;100171.97;;;3.22;100.00
20145;BME280;10233;50.814;6.590;2024-03-08T02:36:36;100175.56;;;3.21;100.00
20145;BME280;10233;50.814;6.590;2024-03-08T02:37:37;100173.91;;;3.20;100.00
20145;BME280;10233;50.814;6.590;2024-03-08T02:38:38;100176.25;;;3.23;100.00
20145;BME280;10233;50.814;6.590;2024-03-08T02:39:41;100167.38;;;3.24;100.00
20145;BME280;10233;50.814;6.590;2024-03-08T02:40:59;100171.00;;;3.23;100.00
20145;BME280;10233;50.814;6.590;2024-03-08T02:42:00;100174.06;;;3.19;100.00
20145;BME280;10233;50.814;6.590;2024-03-08T02:43:00;100169.66;;;3.19;100.00
20145;BME280;10233;50.814;6.590;2024-03-08T02:44:01;100168.50;;;3.22;100.00
20145;BME280;10233;50.814;6.590;2024-03-08T02:45:01;100169.16;;;3.16;100.00
20145;BME280;10233;50.814;6.590;2024-03-08T02:46:02;100164.19;;;3.13;100.00
20145;BME280;10233;50.814;6.590;2024-03-08T02:47:02;100164.34;;;3.11;100.00
20145;BME280;10233;50.814;6.590;2024-03-08T02:48:03;100164.50;;;3.10;100.00
20145;BME280;10233;50.814;6.590;2024-03-08T02:49:03;100160.09;;;3.10;100.00
20145;BME280;10233;50.814;6.590;2024-03-08T02:50:06;100162.41;;;3.13;100.00
20145;BME280;10233;50.814;6.590;2024-03-08T02:51:08;100163.34;;;3.12;100.00
20145;BME280;10233;50.814;6.590;2024-03-08T02:52:08;100164.25;;;3.21;100.00
20145;BME280;10233;50.814;6.590;2024-03-08T02:53:09;100166.38;;;3.17;100.00
20145;BME280;10233;50.814;6.590;2024-03-08T02:54:10;100168.31;;;3.15;100.00
20145;BME280;10233;50.814;6.590;2024-03-08T02:55:10;100163.69;;;3.09;100.00
20145;BME280;10233;50.814;6.590;2024-03-08T02:56:11;100168.31;;;3.15;100.00
20145;BME280;10233;50.814;6.590;2024-03-08T02:57:13;100166.66;;;3.14;100.00
20145;BME280;10233;50.814;6.590;2024-03-08T02:58:15;100157.47;;;3.10;100.00
20145;BME280;10233;50.814;6.590;2024-03-08T02:59:15;100163.69;;;3.09;100.00
20145;BME280;10233;50.814;6.590;2024-03-08T03:00:18;100159.09;;;3.11;100.00
20145;BME280;10233;50.814;6.590;2024-03-08T03:01:19;100168.09;;;3.09;100.00
20145;BME280;10233;50.814;6.590;2024-03-08T03:02:20;100164.34;;;3.11;100.00
20145;BME280;10233;50.814;6.590;2024-03-08T03:03:21;100158.94;;;3.13;100.00
20145;BME280;10233;50.814;6.590;2024-03-08T03:04:22;100162.75;;;3.18;100.00
20145;BME280;10233;50.814;6.590;2024-03-08T03:05:23;100158.44;;;3.09;100.00
20145;BME280;10233;50.814;6.590;2024-03-08T03:06:24;100150.22;;;3.12;100.00
20145;BME280;10233;50.814;6.590;2024-03-08T03:07:24;100155.34;;;3.14;100.00
20145;BME280;10233;50.814;6.590;2024-03-08T03:08:27;100155.19;;;3.15;100.00
20145;BME280;10233;50.814;6.590;2024-03-08T03:09:28;100149.94;;;3.15;100.00
20145;BME280;10233;50.814;6.590;2024-03-08T03:10:29;100153.41;;;3.16;100.00
20145;BME280;10233;50.814;6.590;2024-03-08T03:11:29;100148.94;;;3.08;100.00
20145;BME280;10233;50.814;6.590;2024-03-08T03:12:30;100146.41;;;2.99;100.00
20145;BME280;10233;50.814;6.590;2024-03-08T03:13:31;100148.56;;;3.03;100.00
20145;BME280;10233;50.814;6.590;2024-03-08T03:14:31;100146.97;;;3.10;100.00
20145;BME280;10233;50.814;6.590;2024-03-08T03:15:33;100145.97;;;3.11;100.00
20145;BME280;10233;50.814;6.590;2024-03-08T03:16:34;100145.38;;;3.17;100.00
20145;BME280;10233;50.814;6.590;2024-03-08T03:17:35;100142.22;;;3.14;100.00
20145;BME280;10233;50.814;6.590;2024-03-08T03:18:35;100144.03;;;3.13;100.00
20145;BME280;10233;50.814;6.590;2024-03-08T03:19:49;100151.22;;;3.11;100.00
20145;BME280;10233;50.814;6.590;2024-03-08T03:20:50;100144.97;;;3.04;100.00
20145;BME280;10233;50.814;6.590;2024-03-08T03:21:51;100145.47;;;3.08;100.00
20145;BME280;10233;50.814;6.590;2024-03-08T03:22:53;100138.09;;;3.11;100.00
20145;BME280;10233;50.814;6.590;2024-03-08T03:24:09;100144.38;;;3.18;100.00
20145;BME280;10233;50.814;6.590;2024-03-08T03:25:41;100138.78;;;3.13;100.00
20145;BME280;10233;50.814;6.590;2024-03-08T03:26:49;100143.34;;;3.11;100.00
20145;BME280;10233;50.814;6.590;2024-03-08T03:27:53;100141.41;;;3.13;100.00
20145;BME280;10233;50.814;6.590;2024-03-08T03:28:56;100144.47;;;3.09;100.00
20145;BME280;10233;50.814;6.590;2024-03-08T03:29:57;100147.59;;;3.04;100.00
20145;BME280;10233;50.814;6.590;2024-03-08T03:30:58;100148.25;;;3.06;100.00
20145;BME280;10233;50.814;6.590;2024-03-08T03:31:59;100143.63;;;3.00;100.00
20145;BME280;10233;50.814;6.590;2024-03-08T03:33:00;100141.97;;;2.99;100.00
20145;BME280;10233;50.814;6.590;2024-03-08T03:34:00;100139.22;;;3.01;100.00
20145;BME280;10233;50.814;6.590;2024-03-08T03:35:04;100136.88;;;2.98;100.00
20145;BME280;10233;50.814;6.590;2024-03-08T03:36:05;100143.00;;;3.06;100.00
20145;BME280;10233;50.814;6.590;2024-03-08T03:37:06;100141.34;;;3.05;100.00
20145;BME280;10233;50.814;6.590;2024-03-08T03:38:08;100136.75;;;3.07;100.00
20145;BME280;10233;50.814;6.590;2024-03-08T03:39:09;100138.44;;;3.08;100.00
20145;BME280;10233;50.814;6.590;2024-03-08T03:40:20;100137.66;;;2.90;100.00
20145;BME280;10233;50.814;6.590;2024-03-08T03:41:20;100146.56;;;2.97;100.00
20145;BME280;10233;50.814;6.590;2024-03-08T03:42:21;100135.13;;;3.06;100.00
20145;BME280;10233;50.814;6.590;2024-03-08T03:43:21;100143.31;;;3.03;100.00
20145;BME280;10233;50.814;6.590;2024-03-08T03:44:22;100135.75;;;3.00;100.00
20145;BME280;10233;50.814;6.590;2024-03-08T03:45:24;100134.63;;;3.03;100.00
20145;BME280;10233;50.814;6.590;2024-03-08T03:46:24;100136.69;;;2.91;100.00
20145;BME280;10233;50.814;6.590;2024-03-08T03:47:27;100138.69;;;2.97;100.00
20145;BME280;10233;50.814;6.590;2024-03-08T03:48:27;100141.44;;;2.88;100.00
20145;BME280;10233;50.814;6.590;2024-03-08T03:49:28;100141.56;;;2.86;100.00
20145;BME280;10233;50.814;6.590;2024-03-08T03:50:30;100133.41;;;2.89;100.00
20145;BME280;10233;50.814;6.590;2024-03-08T03:51:32;100135.19;;;2.89;100.00
20145;BME280;10233;50.814;6.590;2024-03-08T03:52:33;100131.56;;;2.82;100.00
20145;BME280;10233;50.814;6.590;2024-03-08T03:53:33;100130.78;;;2.89;100.00
20145;BME280;10233;50.814;6.590;2024-03-08T03:54:34;100137.25;;;2.77;100.00
20145;BME280;10233;50.814;6.590;2024-03-08T03:55:35;100130.38;;;2.76;100.00
20145;BME280;10233;50.814;6.590;2024-03-08T03:56:37;100130.06;;;2.79;100.00
20145;BME280;10233;50.814;6.590;2024-03-08T03:57:37;100133.97;;;2.75;100.00
20145;BME280;10233;50.814;6.590;2024-03-08T03:58:38;100129.22;;;2.79;100.00
20145;BME280;10233;50.814;6.590;2024-03-08T03:59:40;100129.00;;;2.64;100.00
20145;BME280;10233;50.814;6.590;2024-03-08T04:00:40;100131.50;;;2.74;100.00
20145;BME280;10233;50.814;6.590;2024-03-08T04:01:44;100129.16;;;2.71;100.00
20145;BME280;10233;50.814;6.590;2024-03-08T04:02:44;100125.53;;;2.64;100.00
20145;BME280;10233;50.814;6.590;2024-03-08T04:03:45;100131.41;;;2.58;100.00
20145;BME280;10233;50.814;6.590;2024-03-08T04:04:46;100126.88;;;2.68;100.00
20145;BME280;10233;50.814;6.590;2024-03-08T04:05:47;100126.56;;;2.71;100.00
20145;BME280;10233;50.814;6.590;2024-03-08T04:06:47;100122.97;;;2.72;100.00
20145;BME280;10233;50.814;6.590;2024-03-08T04:07:48;100124.09;;;2.69;100.00
20145;BME280;10233;50.814;6.590;2024-03-08T04:08:48;100122.97;;;2.72;100.00
20145;BME280;10233;50.814;6.590;2024-03-08T04:09:49;100123.13;;;2.70;100.00
20145;BME280;10233;50.814;6.590;2024-03-08T04:10:50;100124.09;;;2.69;100.00
20145;BME280;10233;50.814;6.590;2024-03-08T04:11:51;100123.91;;;2.63;100.00
20145;BME280;10233;50.814;6.590;2024-03-08T04:12:53;100119.16;;;2.66;100.00
20145;BME280;10233;50.814;6.590;2024-03-08T04:13:53;100122.06;;;2.63;100.00
20145;BME280;10233;50.814;6.590;2024-03-08T04:14:55;100121.34;;;2.53;100.00
20145;BME280;10233;50.814;6.590;2024-03-08T04:15:55;100117.59;;;2.56;100.00
20145;BME280;10233;50.814;6.590;2024-03-08T04:16:56;100118.94;;;2.60;100.00
20145;BME280;10233;50.814;6.590;2024-03-08T04:17:56;100115.94;;;2.47;100.00
20145;BME280;10233;50.814;6.590;2024-03-08T04:19:00;100115.66;;;2.58;100.00
20145;BME280;10233;50.814;6.590;2024-03-08T04:20:04;100114.94;;;2.48;100.00
20145;BME280;10233;50.814;6.590;2024-03-08T04:21:09;100112.47;;;2.46;100.00
20145;BME280;10233;50.814;6.590;2024-03-08T04:22:10;100116.72;;;2.47;100.00
20145;BME280;10233;50.814;6.590;2024-03-08T04:23:10;100115.88;;;2.39;100.00
20145;BME280;10233;50.814;6.590;2024-03-08T04:24:11;100114.06;;;2.39;100.00
20145;BME280;10233;50.814;6.590;2024-03-08T04:25:11;100106.25;;;2.47;100.00
20145;BME280;10233;50.814;6.590;2024-03-08T04:26:11;100109.19;;;2.44;100.00
20145;BME280;10233;50.814;6.590;2024-03-08T04:27:13;100112.47;;;2.46;100.00
20145;BME280;10233;50.814;6.590;2024-03-08T04:28:17;100106.25;;;2.47;100.00
20145;BME280;10233;50.814;6.590;2024-03-08T04:29:17;100107.09;;;2.48;100.00
20145;BME280;10233;50.814;6.590;2024-03-08T04:30:17;100108.94;;;2.55;100.00
20145;BME280;10233;50.814;6.590;2024-03-08T04:31:18;100113.19;;;2.56;100.00
20145;BME280;10233;50.814;6.590;2024-03-08T04:32:18;100106.47;;;2.54;100.00
20145;BME280;10233;50.814;6.590;2024-03-08T04:33:19;100107.66;;;2.59;100.00
20145;BME280;10233;50.814;6.590;2024-03-08T04:34:22;100100.72;;;2.58;100.00
20145;BME280;10233;50.814;6.590;2024-03-08T04:35:24;100109.59;;;2.57;100.00
20145;BME280;10233;50.814;6.590;2024-03-08T04:36:24;100108.66;;;2.66;100.00
20145;BME280;10233;50.814;6.590;2024-03-08T04:37:25;100104.84;;;2.61;100.00
20145;BME280;10233;50.814;6.590;2024-03-08T04:38:25;100105.31;;;2.56;100.00
20145;BME280;10233;50.814;6.590;2024-03-08T04:39:26;100106.16;;;2.57;100.00
20145;BME280;10233;50.814;6.590;2024-03-08T04:40:29;100099.06;;;2.49;100.00
20145;BME280;10233;50.814;6.590;2024-03-08T04:41:30;100101.22;;;2.54;100.00
20145;BME280;10233;50.814;6.590;2024-03-08T04:42:30;100100.56;;;2.52;100.00
20145;BME280;10233;50.814;6.590;2024-03-08T04:43:33;100097.09;;;2.51;100.00
20145;BME280;10233;50.814;6.590;2024-03-08T04:44:34;100104.66;;;2.54;100.00
20145;BME280;10233;50.814;6.590;2024-03-08T04:45:38;100102.03;;;2.54;100.00
20145;BME280;10233;50.814;6.590;2024-03-08T04:46:39;100097.88;;;2.44;100.00
20145;BME280;10233;50.814;6.590;2024-03-08T04:47:40;100098.69;;;2.44;100.00
20145;BME280;10233;50.814;6.590;2024-03-08T04:48:40;100098.50;;;2.38;100.00
20145;BME280;10233;50.814;6.590;2024-03-08T04:49:42;100098.63;;;2.36;100.00
20145;BME280;10233;50.814;6.590;2024-03-08T04:50:44;100102.69;;;2.31;100.00
20145;BME280;10233;50.814;6.590;2024-03-08T04:51:45;100100.75;;;2.33;100.00
20145;BME280;10233;50.814;6.590;2024-03-08T04:52:46;100098.78;;;2.35;100.00
20145;BME280;10233;50.814;6.590;2024-03-08T04:53:47;100091.69;;;2.27;100.00
20145;BME280;10233;50.814;6.590;2024-03-08T04:54:48;100099.69;;;2.26;100.00
20145;BME280;10233;50.814;6.590;2024-03-08T04:55:48;100094.44;;;2.26;100.00
20145;BME280;10233;50.814;6.590;2024-03-08T04:56:49;100096.63;;;2.30;100.00
20145;BME280;10233;50.814;6.590;2024-03-08T04:57:49;100095.28;;;2.26;100.00
20145;BME280;10233;50.814;6.590;2024-03-08T04:58:50;100092.53;;;2.28;100.00
20145;BME280;10233;50.814;6.590;2024-03-08T04:59:50;100084.19;;;2.32;100.00
20145;BME280;10233;50.814;6.590;2024-03-08T05:00:51;100086.16;;;2.30;100.00
20145;BME280;10233;50.814;6.590;2024-03-08T05:01:51;100089.94;;;2.36;100.00
20145;BME280;10233;50.814;6.590;2024-03-08T05:02:51;100089.63;;;2.39;100.00
20145;BME280;10233;50.814;6.590;2024-03-08T05:03:53;100084.25;;;2.40;100.00
20145;BME280;10233;50.814;6.590;2024-03-08T05:04:55;100084.41;;;2.39;100.00
20145;BME280;10233;50.814;6.590;2024-03-08T05:05:55;100083.06;;;2.35;100.00
20145;BME280;10233;50.814;6.590;2024-03-08T05:06:56;100085.75;;;2.43;100.00
20145;BME280;10233;50.814;6.590;2024-03-08T05:07:57;100082.63;;;2.47;100.00
20145;BME280;10233;50.814;6.590;2024-03-08T05:08:58;100084.59;;;2.45;100.00
20145;BME280;10233;50.814;6.590;2024-03-08T05:09:59;100077.91;;;2.51;100.00
20145;BME280;10233;50.814;6.590;2024-03-08T05:10:59;100077.41;;;2.47;100.00
20145;BME280;10233;50.814;6.590;2024-03-08T05:12:03;100076.59;;;2.47;100.00
20145;BME280;10233;50.814;6.590;2024-03-08T05:13:04;100077.91;;;2.51;100.00
20145;BME280;10233;50.814;6.590;2024-03-08T05:14:04;100074.41;;;2.42;100.00
20145;BME280;10233;50.814;6.590;2024-03-08T05:15:05;100074.78;;;2.47;100.00
20145;BME280;10233;50.814;6.590;2024-03-08T05:16:07;100072.63;;;2.43;100.00
20145;BME280;10233;50.814;6.590;2024-03-08T05:17:08;100073.66;;;2.50;100.00
20145;BME280;10233;50.814;6.590;2024-03-08T05:18:09;100072.22;;;2.55;100.00
20145;BME280;10233;50.814;6.590;2024-03-08T05:19:11;100070.03;;;2.51;100.00
20145;BME280;10233;50.814;6.590;2024-03-08T05:20:12;100069.22;;;2.50;100.00
20145;BME280;10233;50.814;6.590;2024-03-08T05:21:13;100072.66;;;2.51;100.00
20145;BME280;10233;50.814;6.590;2024-03-08T05:22:14;100066.59;;;2.50;100.00